Time;durP1;ratioP1;P1;durP2;ratioP2;P2;SDS_P1;SDS_P2;PMS_P1;PMS_P2;Temp;Humidity;BMP_temperature;BMP_pressure;BME280_temperature;BME280_humidity;BME280_pressure;Samples;Min_cycle;Max_cycle;Signal;HPM_P1;HPM_P2
2021/12/12 00:01:12;;;;;;;633.08;56.55;;;;;;;;;;5057912;28;20468;-64
2021/12/12 00:03:45;;;;;;;772.83;57.83;;;;;;;;;;5060202;28;20052;-63
2021/12/12 00:06:15;;;;;;;608.80;51.58;;;;;;;;;;5059781;28;20055;-64
2021/12/12 00:08:44;;;;;;;608.20;52.08;;;;;;;;;;5050798;28;20136;-64
2021/12/12 00:11:13;;;;;;;622.50;52.63;;;;;;;;;;5053703;28;20053;-63
2021/12/12 00:14:00;;;;;;;579.53;50.53;;;;;;;;;;5057148;28;20140;-63
2021/12/12 00:16:39;;;;;;;734.50;53.20;;;;;;;;;;5057112;28;20049;-63
2021/12/12 00:19:06;;;;;;;618.15;51.80;;;;;;;;;;5058881;28;20092;-66
2021/12/12 00:21:41;;;;;;;488.45;42.92;;;;;;;;;;5053382;28;20490;-64
2021/12/12 00:24:10;;;;;;;530.35;45.40;;;;;;;;;;5046965;28;20084;-63
2021/12/12 00:26:36;;;;;;;642.60;49.17;;;;;;;;;;5059601;28;20132;-63
2021/12/12 00:29:11;;;;;;;527.15;46.42;;;;;;;;;;5057860;28;20128;-63
2021/12/12 00:31:37;;;;;;;;;;;;;;;;;;5059864;28;20572;-63
2021/12/12 00:34:04;;;;;;;689.20;54.17;;;;;;;;;;5056303;28;19967;-63
2021/12/12 00:36:32;;;;;;;473.83;45.13;;;;;;;;;;5058826;28;20551;-63
2021/12/12 00:39:07;;;;;;;378.17;42.83;;;;;;;;;;5058941;28;20468;-63
2021/12/12 00:41:48;;;;;;;494.30;45.15;;;;;;;;;;5054974;28;20056;-64
2021/12/12 00:44:15;;;;;;;553.80;46.42;;;;;;;;;;5059426;28;20091;-63
2021/12/12 00:46:43;;;;;;;672.70;51.45;;;;;;;;;;5059138;28;20159;-63
2021/12/12 00:49:09;;;;;;;625.17;47.38;;;;;;;;;;5064799;28;20124;-63
2021/12/12 00:51:39;;;;;;;257.55;37.40;;;;;;;;;;5063347;28;20087;-63
2021/12/12 00:54:10;;;;;;;151.70;33.55;;;;;;;;;;5058422;28;20128;-62
2021/12/12 00:56:38;;;;;;;151.27;32.83;;;;;;;;;;5058708;28;20132;-63
2021/12/12 00:59:05;;;;;;;114.03;31.00;;;;;;;;;;5060695;28;20546;-63
2021/12/12 01:01:47;;;;;;;116.95;31.45;;;;;;;;;;5063797;28;20072;-63
2021/12/12 01:04:16;;;;;;;133.95;32.47;;;;;;;;;;5064627;28;20052;-63
2021/12/12 01:06:43;;;;;;;126.38;31.23;;;;;;;;;;5061050;28;20052;-63
2021/12/12 01:09:10;;;;;;;129.93;33.28;;;;;;;;;;5063612;28;20040;-63
2021/12/12 01:11:39;;;;;;;119.45;29.85;;;;;;;;;;5061868;28;20100;-63
2021/12/12 01:14:14;;;;;;;111.35;29.52;;;;;;;;;;5058879;28;20131;-63
2021/12/12 01:16:46;;;;;;;112.15;29.95;;;;;;;;;;5059872;28;20147;-63
2021/12/12 01:19:22;;;;;;;114.45;29.83;;;;;;;;;;5062290;28;20120;-63
2021/12/12 01:21:50;;;;;;;104.65;30.90;;;;;;;;;;5056550;28;20059;-63
2021/12/12 01:24:24;;;;;;;95.50;27.85;;;;;;;;;;5058843;28;20049;-63
2021/12/12 01:26:53;;;;;;;110.15;29.33;;;;;;;;;;5059462;28;20516;-63
2021/12/12 01:29:20;;;;;;;106.80;30.25;;;;;;;;;;5061259;28;20120;-63
2021/12/12 01:31:48;;;;;;;101.05;29.88;;;;;;;;;;5063908;28;20592;-63
2021/12/12 01:34:16;;;;;;;114.55;32.40;;;;;;;;;;5041362;28;20300;-63
2021/12/12 01:36:58;;;;;;;104.78;30.00;;;;;;;;;;5040683;28;20148;-63
2021/12/12 01:39:25;;;;;;;117.07;31.60;;;;;;;;;;5045314;28;20560;-63
2021/12/12 01:41:55;;;;;;;110.18;29.08;;;;;;;;;;5036522;28;20100;-63
2021/12/12 01:44:42;;;;;;;113.70;30.83;;;;;;;;;;5034282;28;20084;-62
2021/12/12 01:47:12;;;;;;;105.95;29.20;;;;;;;;;;5040303;28;20127;-63
2021/12/12 01:49:50;;;;;;;111.90;29.42;;;;;;;;;;5039139;28;20049;-63
2021/12/12 01:52:18;;;;;;;105.50;29.35;;;;;;;;;;5041637;28;20594;-63
2021/12/12 01:54:48;;;;;;;105.13;30.63;;;;;;;;;;5043069;28;20472;-63
2021/12/12 01:57:23;;;;;;;100.55;28.77;;;;;;;;;;5033189;28;20136;-63
2021/12/12 01:59:54;;;;;;;118.47;32.08;;;;;;;;;;5039428;28;20144;-63
2021/12/12 02:02:23;;;;;;;92.47;28.17;;;;;;;;;;5022991;28;20556;-63
2021/12/12 02:04:52;;;;;;;91.43;28.63;;;;;;;;;;5039283;28;20072;-62
2021/12/12 02:07:26;;;;;;;102.60;28.73;;;;;;;;;;5039942;28;20072;-63
2021/12/12 02:09:53;;;;;;;85.65;26.65;;;;;;;;;;5038701;28;20484;-63
2021/12/12 02:12:21;;;;;;;84.00;26.58;;;;;;;;;;5043920;28;20084;-63
2021/12/12 02:14:56;;;;;;;97.65;30.08;;;;;;;;;;5043913;28;20084;-63
2021/12/12 02:17:32;;;;;;;109.75;31.38;;;;;;;;;;5045344;28;20087;-63
2021/12/12 02:20:11;;;;;;;110.00;30.58;;;;;;;;;;5040359;28;20083;-63
2021/12/12 02:22:55;;;;;;;80.60;22.73;;;;;;;;;;5037213;28;20481;-63
2021/12/12 02:36:35;;;;;;;121.18;31.65;;;;;;;;;;5060442;28;20136;-62
2021/12/12 02:39:08;;;;;;;104.10;30.85;;;;;;;;;;5063041;28;20465;-63
2021/12/12 02:41:34;;;;;;;95.03;29.63;;;;;;;;;;5058394;28;20123;-63
2021/12/12 02:44:02;;;;;;;124.47;30.40;;;;;;;;;;5062359;28;20052;-62
2021/12/12 02:46:33;;;;;;;119.63;32.08;;;;;;;;;;5061835;28;20143;-63
2021/12/12 02:49:07;;;;;;;115.82;30.75;;;;;;;;;;5061289;28;20134;-63
2021/12/12 02:51:39;;;;;;;108.40;30.30;;;;;;;;;;5053284;28;20148;-63
2021/12/12 02:54:06;;;;;;;116.63;31.83;;;;;;;;;;5061959;28;20083;-63
2021/12/12 02:56:38;;;;;;;108.13;30.98;;;;;;;;;;5057521;28;20136;-63
2021/12/12 02:59:14;;;;;;;100.20;30.48;;;;;;;;;;5043388;28;20067;-63
2021/12/12 03:01:43;;;;;;;118.10;30.77;;;;;;;;;;5058956;28;20053;-63
2021/12/12 03:04:10;;;;;;;116.63;30.77;;;;;;;;;;5062059;28;20076;-63
2021/12/12 03:06:39;;;;;;;99.85;30.20;;;;;;;;;;5066087;28;20086;-63
2021/12/12 03:09:11;;;;;;;103.78;30.20;;;;;;;;;;5055129;28;20053;-63
2021/12/12 03:11:38;;;;;;;94.30;29.37;;;;;;;;;;5055989;28;20077;-63
2021/12/12 03:14:05;;;;;;;87.80;26.63;;;;;;;;;;5058719;28;20377;-63
2021/12/12 03:16:32;;;;;;;96.03;28.70;;;;;;;;;;5060115;28;20375;-63
2021/12/12 03:19:05;;;;;;;91.75;27.60;;;;;;;;;;5060609;28;20517;-63
2021/12/12 03:21:33;;;;;;;98.88;29.08;;;;;;;;;;5059461;28;20048;-63
2021/12/12 03:24:02;;;;;;;103.82;29.65;;;;;;;;;;5065655;28;20136;-63
2021/12/12 03:26:29;;;;;;;88.05;27.98;;;;;;;;;;5059083;28;20448;-63
2021/12/12 03:28:56;;;;;;;95.43;28.65;;;;;;;;;;5058324;28;20114;-63
2021/12/12 03:31:28;;;;;;;92.05;27.92;;;;;;;;;;5065602;28;20147;-63
2021/12/12 03:33:55;;;;;;;87.05;28.92;;;;;;;;;;5047061;28;20078;-62
2021/12/12 03:36:23;;;;;;;92.60;29.67;;;;;;;;;;5076990;28;20125;-62
2021/12/12 03:38:51;;;;;;;94.22;28.05;;;;;;;;;;5078838;28;20143;-63
2021/12/12 03:41:20;;;;;;;98.78;30.50;;;;;;;;;;5080591;28;20140;-63
2021/12/12 03:43:51;;;;;;;101.13;29.08;;;;;;;;;;5078689;28;20147;-63
2021/12/12 03:46:17;;;;;;;86.75;28.25;;;;;;;;;;5080164;28;20922;-63
2021/12/12 03:48:44;;;;;;;73.35;20.42;;;;;;;;;;5078593;28;20049;-63
2021/12/12 03:51:11;;;;;;;;;;;;;;;;;;5082622;28;20051;-63
2021/12/12 03:53:38;;;;;;;76.72;25.75;;;;;;;;;;5081816;28;20016;-63
2021/12/12 03:56:06;;;;;;;94.20;28.33;;;;;;;;;;5076339;28;20143;-63
2021/12/12 03:58:33;;;;;;;94.43;27.17;;;;;;;;;;5074846;28;20140;-62
2021/12/12 04:01:03;;;;;;;103.80;30.15;;;;;;;;;;5078430;28;20134;-63
2021/12/12 04:03:37;;;;;;;99.05;30.13;;;;;;;;;;5078113;28;20155;-63
2021/12/12 04:06:05;;;;;;;104.05;28.73;;;;;;;;;;5074451;28;20132;-63
2021/12/12 04:08:33;;;;;;;104.18;29.95;;;;;;;;;;5078786;28;20052;-62
2021/12/12 04:11:06;;;;;;;99.50;27.98;;;;;;;;;;5076815;28;20162;-63
2021/12/12 04:13:37;;;;;;;99.22;28.83;;;;;;;;;;5082812;28;20144;-63
2021/12/12 04:16:04;;;;;;;97.95;30.00;;;;;;;;;;5082931;28;20102;-62
2021/12/12 04:18:31;;;;;;;102.13;30.15;;;;;;;;;;5077634;28;20765;-63
2021/12/12 04:21:00;;;;;;;101.65;29.67;;;;;;;;;;5082778;28;20151;-63
2021/12/12 04:23:27;;;;;;;104.15;30.13;;;;;;;;;;5080304;28;20078;-63
2021/12/12 04:25:54;;;;;;;105.15;30.92;;;;;;;;;;5082808;28;20470;-63
2021/12/12 04:28:21;;;;;;;101.05;29.88;;;;;;;;;;5082013;28;20131;-63
2021/12/12 04:30:49;;;;;;;101.25;28.80;;;;;;;;;;5084508;28;20560;-63
2021/12/12 04:33:15;;;;;;;107.03;31.30;;;;;;;;;;5087591;28;20056;-63
2021/12/12 04:35:42;;;;;;;110.53;30.70;;;;;;;;;;5085648;28;20664;-63
2021/12/12 04:38:09;;;;;;;70.68;22.50;;;;;;;;;;5079893;28;20580;-63
2021/12/12 04:40:36;;;;;;;91.45;28.90;;;;;;;;;;5082001;28;20076;-63
2021/12/12 04:43:04;;;;;;;98.13;28.95;;;;;;;;;;5081357;28;20057;-63
2021/12/12 04:46:02;;;;;;;109.45;30.63;;;;;;;;;;5082241;28;20131;-62
2021/12/12 04:51:42;;;;;;;90.30;27.55;;;;;;;;;;5079264;28;20040;-63
2021/12/12 04:54:19;;;;;;;99.03;29.05;;;;;;;;;;5078830;28;20087;-63
2021/12/12 04:56:49;;;;;;;93.03;27.63;;;;;;;;;;5082422;28;20472;-62
2021/12/12 04:59:19;;;;;;;116.10;28.27;;;;;;;;;;5082463;28;20079;-62
2021/12/12 05:01:49;;;;;;;87.13;26.80;;;;;;;;;;5088328;28;20072;-63
2021/12/12 05:04:24;;;;;;;94.43;29.05;;;;;;;;;;5078131;28;20071;-62
2021/12/12 05:07:13;;;;;;;90.55;28.42;;;;;;;;;;5083515;28;20105;-63
2021/12/12 05:09:42;;;;;;;102.82;30.77;;;;;;;;;;5079717;28;20140;-62
2021/12/12 05:12:14;;;;;;;96.93;30.13;;;;;;;;;;5086992;28;20131;-63
2021/12/12 05:14:45;;;;;;;100.05;29.50;;;;;;;;;;5083056;28;20131;-62
2021/12/12 05:17:17;;;;;;;87.38;27.73;;;;;;;;;;5080723;28;20508;-62
2021/12/12 05:19:49;;;;;;;96.45;28.98;;;;;;;;;;5082789;28;20576;-62
2021/12/12 05:22:19;;;;;;;91.20;29.02;;;;;;;;;;5077538;28;20658;-62
2021/12/12 05:24:47;;;;;;;88.85;28.17;;;;;;;;;;5078880;28;20139;-62
2021/12/12 05:27:15;;;;;;;85.70;29.00;;;;;;;;;;5077308;28;20070;-63
2021/12/12 05:30:00;;;;;;;105.00;32.53;;;;;;;;;;5080956;28;20040;-62
2021/12/12 05:32:28;;;;;;;91.78;31.02;;;;;;;;;;5083506;28;20132;-62
2021/12/12 05:34:56;;;;;;;97.07;30.80;;;;;;;;;;5082387;28;20135;-62
2021/12/12 05:37:22;;;;;;;;;;;;;;;;;;5078722;28;20090;-62
2021/12/12 05:39:50;;;;;;;89.82;28.75;;;;;;;;;;5082505;28;19958;-62
2021/12/12 05:42:18;;;;;;;98.90;30.52;;;;;;;;;;5086130;28;20222;-62
2021/12/12 05:44:44;;;;;;;99.97;31.08;;;;;;;;;;5079310;28;20163;-62
2021/12/12 05:47:11;;;;;;;107.50;30.90;;;;;;;;;;5077361;28;20479;-62
2021/12/12 05:49:39;;;;;;;91.45;29.48;;;;;;;;;;5062987;28;20171;-62
2021/12/12 05:52:11;;;;;;;91.68;30.33;;;;;;;;;;5061128;28;20452;-62
2021/12/12 05:54:38;;;;;;;99.93;30.35;;;;;;;;;;5058195;28;20499;-62
2021/12/12 05:57:04;;;;;;;89.10;29.73;;;;;;;;;;5055859;28;20444;-63
2021/12/12 05:59:31;;;;;;;93.63;28.80;;;;;;;;;;5056313;28;20570;-63
2021/12/12 06:01:58;;;;;;;92.95;29.42;;;;;;;;;;5053934;28;20554;-62
2021/12/12 06:04:25;;;;;;;;;;;;;;;;;;5057966;28;20440;-63
2021/12/12 06:06:52;;;;;;;90.97;27.45;;;;;;;;;;5062651;28;20018;-62
2021/12/12 06:09:20;;;;;;;81.95;27.92;;;;;;;;;;5059845;28;20057;-62
2021/12/12 06:11:53;;;;;;;83.93;27.63;;;;;;;;;;5075599;28;20155;-63
2021/12/12 06:14:20;;;;;;;91.68;28.75;;;;;;;;;;5079341;28;20075;-62
2021/12/12 06:16:47;;;;;;;87.47;29.00;;;;;;;;;;5080161;28;20052;-62
2021/12/12 06:19:22;;;;;;;79.13;28.30;;;;;;;;;;5077989;28;20087;-62
2021/12/12 06:21:53;;;;;;;78.35;27.85;;;;;;;;;;5081375;28;20083;-62
2021/12/12 06:24:22;;;;;;;84.03;29.40;;;;;;;;;;5060759;28;20485;-62
2021/12/12 06:26:49;;;;;;;74.05;26.98;;;;;;;;;;5065283;28;20063;-62
2021/12/12 06:29:16;;;;;;;70.32;22.75;;;;;;;;;;5039623;28;20114;-62
2021/12/12 06:31:50;;;;;;;88.75;29.52;;;;;;;;;;5058643;28;20052;-62
2021/12/12 06:34:17;;;;;;;;;;;;;;;;;;5057595;28;20139;-62
2021/12/12 06:36:43;;;;;;;71.97;24.73;;;;;;;;;;5060548;28;20378;-62
2021/12/12 06:39:14;;;;;;;76.70;26.48;;;;;;;;;;5061651;28;20047;-62
2021/12/12 06:41:41;;;;;;;71.60;24.95;;;;;;;;;;5081654;28;20130;-62
2021/12/12 06:44:08;;;;;;;78.72;27.90;;;;;;;;;;5074942;28;20055;-62
2021/12/12 06:46:37;;;;;;;78.60;27.35;;;;;;;;;;5082787;28;20665;-62
2021/12/12 06:49:05;;;;;;;83.10;27.50;;;;;;;;;;5075356;28;20079;-62
2021/12/12 06:51:33;;;;;;;84.07;27.10;;;;;;;;;;5082164;28;20150;-62
2021/12/12 06:54:06;;;;;;;78.70;27.95;;;;;;;;;;5051558;28;20131;-62
2021/12/12 06:56:33;;;;;;;82.67;30.40;;;;;;;;;;5052259;28;20052;-62
2021/12/12 06:59:00;;;;;;;86.00;29.70;;;;;;;;;;5054485;28;20163;-62
2021/12/12 07:01:31;;;;;;;77.30;28.08;;;;;;;;;;5062131;28;20476;-62
2021/12/12 07:03:58;;;;;;;87.15;31.35;;;;;;;;;;5057274;28;20137;-62
2021/12/12 07:06:26;;;;;;;69.60;26.42;;;;;;;;;;5064366;28;20053;-62
2021/12/12 07:09:03;;;;;;;75.75;27.80;;;;;;;;;;5078278;28;20178;-62
2021/12/12 07:11:30;;;;;;;75.90;27.58;;;;;;;;;;5079214;28;20046;-62
2021/12/12 07:13:57;;;;;;;86.68;30.42;;;;;;;;;;5082172;28;20098;-62
2021/12/12 07:16:31;;;;;;;87.30;31.08;;;;;;;;;;5083241;28;20521;-62
2021/12/12 07:18:58;;;;;;;94.32;30.77;;;;;;;;;;5080121;28;20052;-62
2021/12/12 07:21:25;;;;;;;92.07;30.48;;;;;;;;;;5081970;28;20044;-62
2021/12/12 07:23:59;;;;;;;82.15;30.73;;;;;;;;;;5074460;28;20058;-62
2021/12/12 07:26:25;;;;;;;;;;;;;;;;;;5076036;28;20048;-62
2021/12/12 07:28:52;;;;;;;75.45;26.85;;;;;;;;;;5078953;28;19968;-62
2021/12/12 07:31:27;;;;;;;72.25;27.73;;;;;;;;;;5076099;28;20115;-62
2021/12/12 07:34:03;;;;;;;67.60;26.75;;;;;;;;;;5077500;28;20113;-62
2021/12/12 07:36:39;;;;;;;77.65;29.67;;;;;;;;;;5054598;28;20091;-62
2021/12/12 07:39:09;;;;;;;81.55;30.13;;;;;;;;;;5060451;28;20136;-62
2021/12/12 07:41:36;;;;;;;74.95;28.35;;;;;;;;;;5060106;28;20077;-62
2021/12/12 07:44:05;;;;;;;79.72;29.77;;;;;;;;;;5058461;28;20127;-62
2021/12/12 07:46:31;;;;;;;66.47;26.55;;;;;;;;;;5060606;28;20127;-62
2021/12/12 07:48:58;;;;;;;56.90;21.70;;;;;;;;;;5076874;28;20566;-62
2021/12/12 07:51:27;;;;;;;72.07;27.98;;;;;;;;;;5059120;28;20452;-62
2021/12/12 07:53:59;;;;;;;88.35;30.80;;;;;;;;;;5077822;28;20048;-62
2021/12/12 07:56:27;;;;;;;85.22;29.52;;;;;;;;;;5077538;28;20087;-62
2021/12/12 07:58:56;;;;;;;84.15;31.45;;;;;;;;;;5078112;28;20135;-62
2021/12/12 08:01:23;;;;;;;85.78;30.80;;;;;;;;;;5082422;28;20106;-62
2021/12/12 08:03:50;;;;;;;56.83;22.92;;;;;;;;;;5084819;28;20140;-62
2021/12/12 08:06:18;;;;;;;80.93;31.83;;;;;;;;;;5078109;28;20090;-62
2021/12/12 08:08:45;;;;;;;75.50;27.50;;;;;;;;;;5078577;28;20131;-62
2021/12/12 08:11:33;;;;;;;76.15;29.42;;;;;;;;;;5078720;28;20045;-62
2021/12/12 08:14:01;;;;;;;73.22;27.80;;;;;;;;;;5077636;28;20050;-62
2021/12/12 08:16:28;;;;;;;67.18;27.23;;;;;;;;;;5078466;28;20076;-62
2021/12/12 08:18:56;;;;;;;70.20;28.10;;;;;;;;;;5080080;28;20052;-62
2021/12/12 08:21:26;;;;;;;67.30;26.77;;;;;;;;;;5078981;28;20075;-62
2021/12/12 08:23:55;;;;;;;69.70;29.08;;;;;;;;;;5081029;28;20048;-62
2021/12/12 08:26:25;;;;;;;69.95;25.25;;;;;;;;;;5078229;28;20049;-62
2021/12/12 08:28:52;;;;;;;67.07;24.25;;;;;;;;;;5085685;28;20088;-62
2021/12/12 08:31:19;;;;;;;68.30;22.70;;;;;;;;;;5078289;28;20512;-62
2021/12/12 08:33:45;;;;;;;62.55;23.17;;;;;;;;;;5078968;28;20511;-62
2021/12/12 08:36:14;;;;;;;67.03;24.15;;;;;;;;;;5074291;28;20414;-62
2021/12/12 08:38:41;;;;;;;63.83;24.80;;;;;;;;;;5077069;28;20088;-62
2021/12/12 08:41:08;;;;;;;68.57;24.98;;;;;;;;;;5078622;28;20058;-62
2021/12/12 08:43:35;;;;;;;67.65;25.65;;;;;;;;;;5073898;28;20139;-62
2021/12/12 08:46:07;;;;;;;60.05;23.88;;;;;;;;;;5079154;28;20076;-62
2021/12/12 08:48:39;;;;;;;61.67;23.08;;;;;;;;;;5076843;28;20055;-62
2021/12/12 08:51:11;;;;;;;67.13;24.63;;;;;;;;;;5059928;28;20075;-62
2021/12/12 08:53:39;;;;;;;57.88;24.27;;;;;;;;;;5061091;28;20107;-62
2021/12/12 08:56:08;;;;;;;62.58;26.70;;;;;;;;;;5059891;28;20120;-62
2021/12/12 08:58:35;;;;;;;60.88;24.98;;;;;;;;;;5059556;28;20083;-62
2021/12/12 09:01:07;;;;;;;59.70;24.55;;;;;;;;;;5055387;28;20059;-62
2021/12/12 09:04:03;;;;;;;50.42;21.45;;;;;;;;;;5056211;28;20072;-62
2021/12/12 09:06:57;;;;;;;52.13;20.95;;;;;;;;;;5076812;28;20132;-62
2021/12/12 09:09:27;;;;;;;48.78;22.25;;;;;;;;;;5084230;28;20143;-62
2021/12/12 09:12:17;;;;;;;54.15;21.77;;;;;;;;;;5078752;28;20131;-62
2021/12/12 09:14:52;;;;;;;57.47;23.88;;;;;;;;;;5078881;28;20142;-62
2021/12/12 09:17:29;;;;;;;55.92;22.60;;;;;;;;;;5057230;28;20135;-62
2021/12/12 09:20:14;;;;;;;50.95;21.55;;;;;;;;;;5059418;28;20104;-62
2021/12/12 09:22:55;;;;;;;48.38;21.83;;;;;;;;;;5060419;28;20052;-62
2021/12/12 09:25:31;;;;;;;45.05;19.92;;;;;;;;;;5057950;28;20068;-62
2021/12/12 09:28:16;;;;;;;43.13;19.35;;;;;;;;;;5057421;28;20168;-62
2021/12/12 09:30:43;;;;;;;41.78;19.48;;;;;;;;;;5054703;28;20132;-62
2021/12/12 09:33:21;;;;;;;;;;;;;;;;;;5059565;28;20136;-62
2021/12/12 09:35:54;;;;;;;47.15;20.45;;;;;;;;;;5062182;28;20015;-62
2021/12/12 09:38:28;;;;;;;40.35;19.30;;;;;;;;;;5064267;28;20044;-62
2021/12/12 09:41:08;;;;;;;37.78;17.70;;;;;;;;;;5065440;28;20670;-63
2021/12/12 09:43:51;;;;;;;34.95;16.83;;;;;;;;;;5064156;28;20492;-62
2021/12/12 09:46:44;;;;;;;38.28;18.27;;;;;;;;;;5058936;28;20065;-62
2021/12/12 09:52:23;;;;;;;37.60;17.45;;;;;;;;;;5059826;28;20068;-62
2021/12/12 09:55:12;;;;;;;33.92;16.85;;;;;;;;;;5063164;28;20059;-62
2021/12/12 09:57:44;;;;;;;33.47;17.25;;;;;;;;;;5060230;28;20048;-62
2021/12/12 10:00:19;;;;;;;36.58;16.58;;;;;;;;;;5064057;28;20135;-62
2021/12/12 10:03:05;;;;;;;31.65;16.17;;;;;;;;;;5059574;28;20048;-62
2021/12/12 10:05:41;;;;;;;34.00;16.30;;;;;;;;;;5056904;28;20136;-62
2021/12/12 10:08:23;;;;;;;32.80;16.90;;;;;;;;;;5059513;28;20085;-63
2021/12/12 10:11:06;;;;;;;32.90;17.00;;;;;;;;;;5060297;28;20514;-62
2021/12/12 10:13:38;;;;;;;31.77;16.52;;;;;;;;;;5039587;28;20087;-62
2021/12/12 10:16:19;;;;;;;37.03;16.40;;;;;;;;;;5062670;28;20144;-62
2021/12/12 10:18:48;;;;;;;31.85;16.67;;;;;;;;;;5055635;28;20094;-62
2021/12/12 10:21:18;;;;;;;31.23;16.35;;;;;;;;;;5063031;28;20132;-62
2021/12/12 10:23:58;;;;;;;29.88;15.55;;;;;;;;;;5061318;28;20088;-62
2021/12/12 10:26:29;;;;;;;31.95;16.38;;;;;;;;;;5063223;28;20123;-62
2021/12/12 10:28:59;;;;;;;31.33;16.73;;;;;;;;;;5059373;28;20080;-62
2021/12/12 10:31:29;;;;;;;31.38;16.58;;;;;;;;;;5059087;28;20127;-62
2021/12/12 10:33:58;;;;;;;31.95;17.10;;;;;;;;;;5060109;28;20052;-62
2021/12/12 10:36:36;;;;;;;28.80;15.75;;;;;;;;;;5057384;28;20478;-62
2021/12/12 10:39:12;;;;;;;30.85;16.25;;;;;;;;;;5063922;28;20049;-62
2021/12/12 10:41:46;;;;;;;27.15;15.43;;;;;;;;;;5059669;28;20041;-62
2021/12/12 10:44:18;;;;;;;25.10;14.18;;;;;;;;;;5059844;28;20048;-62
2021/12/12 10:46:45;;;;;;;29.73;14.52;;;;;;;;;;5058654;28;20049;-62
2021/12/12 10:49:25;;;;;;;28.52;14.88;;;;;;;;;;5059445;28;20052;-62
2021/12/12 10:51:57;;;;;;;28.70;14.98;;;;;;;;;;5056193;28;20175;-63
2021/12/12 10:54:28;;;;;;;25.88;14.43;;;;;;;;;;5043694;28;20497;-63
2021/12/12 10:57:07;;;;;;;27.05;14.30;;;;;;;;;;5057817;28;20638;-62
2021/12/12 10:59:39;;;;;;;25.45;14.15;;;;;;;;;;5062466;28;20087;-63
2021/12/12 11:02:07;;;;;;;24.08;13.40;;;;;;;;;;5057280;28;20124;-62
2021/12/12 11:04:43;;;;;;;25.20;13.77;;;;;;;;;;5054487;28;20455;-63
2021/12/12 11:07:24;;;;;;;23.05;12.73;;;;;;;;;;5053100;28;20135;-63
2021/12/12 11:09:56;;;;;;;21.15;12.07;;;;;;;;;;5059911;28;20563;-63
2021/12/12 11:12:34;;;;;;;23.15;13.02;;;;;;;;;;5059064;28;20041;-62
2021/12/12 11:15:03;;;;;;;25.48;14.15;;;;;;;;;;5062195;28;20135;-63
2021/12/12 11:17:37;;;;;;;23.67;14.02;;;;;;;;;;5061608;28;20127;-62
2021/12/12 11:20:23;;;;;;;21.40;12.38;;;;;;;;;;5059175;28;20068;-63
2021/12/12 11:22:59;;;;;;;25.75;13.93;;;;;;;;;;5060495;28;20520;-62
2021/12/12 11:25:29;;;;;;;26.38;13.48;;;;;;;;;;5058750;28;20675;-62
2021/12/12 11:27:58;;;;;;;24.35;13.38;;;;;;;;;;5054988;28;20135;-63
2021/12/12 11:30:40;;;;;;;23.88;13.68;;;;;;;;;;5054129;28;20080;-62
2021/12/12 11:33:09;;;;;;;23.63;12.65;;;;;;;;;;5058164;28;20088;-63
2021/12/12 11:35:38;;;;;;;25.33;12.98;;;;;;;;;;5058197;28;20048;-62
2021/12/12 11:38:28;;;;;;;22.70;13.10;;;;;;;;;;5060476;28;20050;-63
2021/12/12 11:41:00;;;;;;;25.23;13.93;;;;;;;;;;5039982;28;20140;-62
2021/12/12 11:43:32;;;;;;;24.75;13.95;;;;;;;;;;5061951;28;20053;-63
2021/12/12 11:46:02;;;;;;;21.85;12.10;;;;;;;;;;5055373;28;20548;-63
2021/12/12 11:48:47;;;;;;;21.90;12.52;;;;;;;;;;5061098;28;20055;-63
2021/12/12 11:51:17;;;;;;;22.42;12.65;;;;;;;;;;5059518;28;20270;-62
2021/12/12 11:53:46;;;;;;;21.70;12.70;;;;;;;;;;5064711;28;20072;-62
2021/12/12 11:56:15;;;;;;;21.25;12.95;;;;;;;;;;5059161;28;20045;-63
2021/12/12 11:58:46;;;;;;;24.50;13.80;;;;;;;;;;5056511;28;20115;-62
2021/12/12 12:01:22;;;;;;;22.25;12.75;;;;;;;;;;5056876;28;20131;-63
2021/12/12 12:03:49;;;;;;;21.77;12.88;;;;;;;;;;5057909;28;20478;-63
2021/12/12 12:06:21;;;;;;;18.65;9.85;;;;;;;;;;5061450;28;20127;-62
2021/12/12 12:09:11;;;;;;;20.27;12.13;;;;;;;;;;5058019;28;20080;-63
2021/12/12 12:11:41;;;;;;;20.52;12.43;;;;;;;;;;5057599;28;20076;-63
2021/12/12 12:14:18;;;;;;;22.83;11.98;;;;;;;;;;5056301;28;20072;-63
2021/12/12 12:16:44;;;;;;;23.90;12.20;;;;;;;;;;5055652;28;20474;-63
2021/12/12 12:19:46;;;;;;;24.33;12.70;;;;;;;;;;5058248;28;20531;-63
2021/12/12 12:22:23;;;;;;;23.35;12.88;;;;;;;;;;4967963;28;20154;-63
2021/12/12 12:25:01;;;;;;;27.17;13.25;;;;;;;;;;5032894;28;20132;-63
2021/12/12 12:27:36;;;;;;;39.50;15.75;;;;;;;;;;5062115;28;20095;-63
2021/12/12 12:30:20;;;;;;;31.13;14.10;;;;;;;;;;5057107;28;20135;-63
2021/12/12 12:33:07;;;;;;;29.05;13.93;;;;;;;;;;5038823;28;20129;-63
2021/12/12 12:35:46;;;;;;;38.75;21.80;;;;;;;;;;5048530;28;20145;-63
2021/12/12 12:38:31;;;;;;;44.95;23.67;;;;;;;;;;5057100;28;20072;-63
2021/12/12 12:41:16;;;;;;;22.52;13.48;;;;;;;;;;5058538;28;20152;-63
2021/12/12 12:43:46;;;;;;;19.20;11.75;;;;;;;;;;5056557;28;20550;-63
2021/12/12 12:46:31;;;;;;;26.08;15.70;;;;;;;;;;5065000;28;20045;-63
2021/12/12 12:49:30;;;;;;;24.20;14.10;;;;;;;;;;5045996;28;20110;-63
2021/12/12 12:51:57;;;;;;;20.30;11.80;;;;;;;;;;5026505;28;20073;-63
2021/12/12 12:54:31;;;;;;;20.98;10.93;;;;;;;;;;5052794;28;20085;-62
2021/12/12 12:57:06;;;;;;;22.15;13.10;;;;;;;;;;5062280;28;20080;-63
2021/12/12 12:59:46;;;;;;;21.40;12.70;;;;;;;;;;5054811;28;20160;-63
2021/12/12 13:02:16;;;;;;;23.58;12.52;;;;;;;;;;5062739;28;20135;-63
2021/12/12 13:05:07;;;;;;;18.45;10.90;;;;;;;;;;5059194;28;20127;-63
2021/12/12 13:07:40;;;;;;;19.00;11.05;;;;;;;;;;5059834;28;20049;-63
2021/12/12 13:10:13;;;;;;;20.52;11.45;;;;;;;;;;5065284;28;20053;-63
2021/12/12 13:12:40;;;;;;;22.00;11.70;;;;;;;;;;5059894;28;20052;-63
2021/12/12 13:15:11;;;;;;;21.40;12.10;;;;;;;;;;5061135;28;20048;-63
2021/12/12 13:18:06;;;;;;;22.08;12.10;;;;;;;;;;5065250;28;20126;-63
2021/12/12 13:20:47;;;;;;;24.30;13.00;;;;;;;;;;5059340;28;20123;-63
2021/12/12 13:23:29;;;;;;;27.77;13.60;;;;;;;;;;5065363;28;20075;-63
2021/12/12 13:26:02;;;;;;;25.25;13.25;;;;;;;;;;5063025;28;20252;-63
2021/12/12 13:28:41;;;;;;;22.40;13.27;;;;;;;;;;5062183;28;20132;-62
2021/12/12 13:31:19;;;;;;;24.48;13.38;;;;;;;;;;5065615;28;20052;-62
2021/12/12 13:33:48;;;;;;;23.80;13.50;;;;;;;;;;5065576;28;20080;-63
2021/12/12 13:36:30;;;;;;;28.02;14.98;;;;;;;;;;5061943;28;20131;-63
2021/12/12 13:39:20;;;;;;;25.85;13.80;;;;;;;;;;5064158;28;20085;-62
2021/12/12 13:42:06;;;;;;;26.13;13.82;;;;;;;;;;5048297;28;20143;-62
2021/12/12 13:44:41;;;;;;;24.27;13.65;;;;;;;;;;5059859;28;20627;-63
2021/12/12 13:47:07;;;;;;;28.75;14.43;;;;;;;;;;5064209;28;20049;-62
2021/12/12 13:49:39;;;;;;;27.88;14.55;;;;;;;;;;5062127;28;20408;-62
2021/12/12 13:52:14;;;;;;;30.08;14.73;;;;;;;;;;5061730;28;20047;-62
2021/12/12 13:54:51;;;;;;;28.27;14.45;;;;;;;;;;5057574;28;20127;-63
2021/12/12 13:57:21;;;;;;;28.20;14.20;;;;;;;;;;5058990;28;20188;-63
2021/12/12 14:00:09;;;;;;;28.88;14.45;;;;;;;;;;5058465;28;20083;-63
2021/12/12 14:02:37;;;;;;;31.80;15.93;;;;;;;;;;5045874;28;20124;-62
2021/12/12 14:05:07;;;;;;;29.95;15.05;;;;;;;;;;5059376;28;20768;-62
2021/12/12 14:07:42;;;;;;;31.77;14.38;;;;;;;;;;5060955;28;20080;-63
2021/12/12 14:10:15;;;;;;;28.90;14.77;;;;;;;;;;5057901;28;20445;-62
2021/12/12 14:12:43;;;;;;;29.83;15.30;;;;;;;;;;5058964;28;20220;-63
2021/12/12 14:15:30;;;;;;;30.92;14.43;;;;;;;;;;5060763;28;20481;-62
2021/12/12 14:18:00;;;;;;;29.63;13.82;;;;;;;;;;5061340;28;20680;-63
2021/12/12 14:20:42;;;;;;;28.55;14.50;;;;;;;;;;5060518;28;20123;-63
2021/12/12 14:23:15;;;;;;;28.80;14.02;;;;;;;;;;5062302;28;20276;-63
2021/12/12 14:25:45;;;;;;;26.42;13.45;;;;;;;;;;5061277;28;20131;-63
2021/12/12 14:28:12;;;;;;;28.73;14.35;;;;;;;;;;5060751;28;20131;-63
2021/12/12 14:30:41;;;;;;;30.63;14.23;;;;;;;;;;5063105;28;20136;-63
2021/12/12 14:33:11;;;;;;;30.30;14.68;;;;;;;;;;5058605;28;20512;-63
2021/12/12 14:35:46;;;;;;;32.10;14.57;;;;;;;;;;5062629;28;20060;-63
2021/12/12 14:38:13;;;;;;;31.08;14.55;;;;;;;;;;5063533;28;20484;-63
2021/12/12 14:41:06;;;;;;;28.55;14.23;;;;;;;;;;5057930;28;20045;-63
2021/12/12 14:43:58;;;;;;;28.60;14.82;;;;;;;;;;5056817;28;20076;-63
2021/12/12 14:46:41;;;;;;;29.02;14.10;;;;;;;;;;5056502;28;20084;-63
2021/12/12 14:49:16;;;;;;;29.25;14.00;;;;;;;;;;5060314;28;20051;-63
2021/12/12 14:51:54;;;;;;;34.25;14.80;;;;;;;;;;5059363;28;20080;-63
2021/12/12 14:54:23;;;;;;;33.30;15.32;;;;;;;;;;5057379;28;20116;-63
2021/12/12 14:56:55;;;;;;;30.48;13.85;;;;;;;;;;5056823;28;20168;-63
2021/12/12 14:59:26;;;;;;;30.05;14.52;;;;;;;;;;5059716;28;20127;-62
2021/12/12 15:01:56;;;;;;;32.17;15.50;;;;;;;;;;5057212;28;20620;-62
2021/12/12 15:04:24;;;;;;;31.20;14.50;;;;;;;;;;5056050;28;20049;-62